Time;durP1;ratioP1;P1;durP2;ratioP2;P2;SDS_P1;SDS_P2;PMS_P1;PMS_P2;Temp;Humidity;BMP_temperature;BMP_pressure;BME280_temperature;BME280_humidity;BME280_pressure;Samples;Min_cycle;Max_cycle;Signal;HPM_P1;HPM_P2
2023/04/03 00:00:38;;;;;;;20.20;8.70;;;;;;;8.20;78.55;94566.22;5003740;28;20594;-72
2023/04/03 00:03:04;;;;;;;23.50;9.37;;;;;;;8.38;77.93;94569.16;5027199;28;20242;-72
2023/04/03 00:05:29;;;;;;;27.90;10.53;;;;;;;8.30;77.92;94566.69;5027348;28;20764;-72
2023/04/03 00:07:55;;;;;;;31.17;12.23;;;;;;;8.26;76.89;94566.28;5012554;28;20245;-72
2023/04/03 00:10:20;;;;;;;26.30;11.27;;;;;;;8.18;77.47;94558.59;5022308;28;20280;-73
2023/04/03 00:12:46;;;;;;;23.57;9.53;;;;;;;8.08;76.81;94558.94;5017587;28;20230;-72
2023/04/03 00:15:12;;;;;;;23.90;9.90;;;;;;;8.36;75.97;94555.50;5015620;28;20238;-71
2023/04/03 00:17:37;;;;;;;19.97;9.63;;;;;;;8.33;76.20;94548.06;5001773;28;20237;-71
2023/04/03 00:20:03;;;;;;;23.37;9.87;;;;;;;8.41;76.56;94545.25;5016420;28;20237;-71
2023/04/03 00:22:29;;;;;;;22.73;9.93;;;;;;;8.43;75.98;94544.06;5010339;28;20230;-71
2023/04/03 00:24:55;;;;;;;26.70;11.20;;;;;;;8.38;76.93;94546.50;5025859;28;20484;-72
2023/04/03 00:27:20;;;;;;;24.83;10.40;;;;;;;8.29;76.57;94541.63;5007401;28;20261;-73
2023/04/03 00:29:46;;;;;;;25.40;10.47;;;;;;;8.25;77.27;94538.56;5004361;28;20234;-72
2023/04/03 00:32:11;;;;;;;23.90;9.87;;;;;;;8.37;75.86;94542.25;5013225;28;20236;-72
2023/04/03 00:34:37;;;;;;;24.03;10.27;;;;;;;8.30;77.16;94541.44;5022887;28;20619;-72
2023/04/03 00:37:02;;;;;;;23.77;10.17;;;;;;;8.40;77.23;94547.09;5021108;28;20242;-73
2023/04/03 00:39:28;;;;;;;22.80;9.57;;;;;;;8.24;77.45;94549.19;5020918;28;20241;-71
2023/04/03 00:41:53;;;;;;;19.43;9.23;;;;;;;8.21;77.58;94544.38;4998669;28;20237;-71
2023/04/03 00:44:23;;;;;;;23.37;9.87;;;;;;;8.20;77.72;94551.38;5025128;28;20230;-72
2023/04/03 00:46:48;;;;;;;24.97;9.17;;;;;;;8.34;76.65;94554.88;5023154;28;20330;-72
2023/04/03 00:49:14;;;;;;;19.70;8.93;;;;;;;8.38;77.35;94558.72;5016913;28;20233;-72
2023/04/03 00:51:39;;;;;;;16.60;8.50;;;;;;;8.11;77.57;94558.56;5020665;28;20669;-71
2023/04/03 00:54:05;;;;;;;19.47;8.40;;;;;;;7.97;79.24;94549.06;5007662;28;20331;-73
2023/04/03 00:56:31;;;;;;;19.17;8.90;;;;;;;7.81;79.58;94551.97;5009301;28;21050;-72
2023/04/03 00:59:01;;;;;;;20.83;8.77;;;;;;;8.00;78.52;94553.88;5026872;28;20387;-72
2023/04/03 01:01:28;;;;;;;20.53;8.40;;;;;;;8.05;78.08;94550.69;5034809;28;20722;-71
2023/04/03 01:03:53;;;;;;;19.83;7.97;;;;;;;8.07;79.20;94557.31;5013307;28;20225;-72
2023/04/03 01:06:21;;;;;;;18.70;7.83;;;;;;;8.13;78.56;94556.56;5030408;28;20234;-72
2023/04/03 01:08:48;;;;;;;18.27;8.07;;;;;;;8.06;79.17;94554.91;5020381;28;20234;-71
2023/04/03 01:11:13;;;;;;;18.03;7.83;;;;;;;7.94;79.67;94561.66;5019899;28;20225;-71
2023/04/03 01:13:40;;;;;;;18.90;8.40;;;;;;;7.80;79.94;94549.56;5034193;28;20666;-72
2023/04/03 01:16:06;;;;;;;17.93;7.63;;;;;;;7.70;80.21;94556.91;5017150;28;20303;-71
2023/04/03 01:18:31;;;;;;;21.00;8.00;;;;;;;7.87;80.58;94559.03;5020963;28;20226;-71
2023/04/03 01:21:06;;;;;;;20.47;7.77;;;;;;;7.80;80.94;94554.78;5010574;28;20705;-71
2023/04/03 01:23:44;;;;;;;16.93;7.37;;;;;;;7.68;80.91;94554.50;5030119;28;20268;-71
2023/04/03 01:26:11;;;;;;;18.67;8.37;;;;;;;7.60;81.41;94557.25;5031930;28;20231;-72
2023/04/03 01:28:36;;;;;;;15.97;7.83;;;;;;;7.37;83.00;94552.28;5018338;28;20233;-72
2023/04/03 01:31:20;;;;;;;19.07;8.00;;;;;;;7.51;82.32;94555.78;5032405;28;20241;-72
2023/04/03 01:33:46;;;;;;;18.57;8.63;;;;;;;7.57;82.20;94557.63;5034233;28;20310;-72
2023/04/03 01:36:24;;;;;;;17.13;7.70;;;;;;;7.34;82.09;94555.25;5009906;28;20320;-72
2023/04/03 01:38:49;;;;;;;18.90;8.43;;;;;;;7.52;81.71;94560.00;5026698;28;20222;-72
2023/04/03 01:41:15;;;;;;;17.70;8.27;;;;;;;7.48;82.42;94556.97;5022429;28;20292;-72
2023/04/03 01:43:41;;;;;;;18.70;8.67;;;;;;;7.20;82.88;94550.94;5017890;28;20241;-72
2023/04/03 01:46:07;;;;;;;15.93;7.67;;;;;;;7.09;82.22;94551.47;5013292;28;20285;-72
2023/04/03 01:48:33;;;;;;;14.83;7.27;;;;;;;7.42;81.40;94552.53;5031075;28;20314;-72
2023/04/03 01:50:58;;;;;;;15.63;7.30;;;;;;;7.41;80.98;94555.31;5032321;28;20261;-72
2023/04/03 01:53:24;;;;;;;16.87;7.10;;;;;;;7.36;81.84;94555.88;5016203;28;20240;-72
2023/04/03 01:55:50;;;;;;;12.43;6.20;;;;;;;7.39;80.31;94555.50;5006358;28;20288;-72
2023/04/03 01:58:15;;;;;;;15.77;6.57;;;;;;;7.34;81.09;94563.06;5003172;28;20229;-72
2023/04/03 02:00:41;;;;;;;13.63;6.10;;;;;;;7.17;82.21;94566.94;5014113;28;20222;-72
2023/04/03 02:03:06;;;;;;;12.97;5.80;;;;;;;7.09;82.43;94563.66;5020755;28;20585;-72
2023/04/03 02:05:32;;;;;;;11.60;5.40;;;;;;;7.09;82.47;94561.06;5017487;28;20283;-73
2023/04/03 02:07:57;;;;;;;9.90;5.00;;;;;;;7.14;82.31;94566.50;5035080;28;20229;-72
2023/04/03 02:10:23;;;;;;;11.63;4.87;;;;;;;7.02;82.54;94568.00;5016044;28;20326;-72
2023/04/03 02:12:48;;;;;;;7.47;4.30;;;;;;;7.06;82.90;94567.44;5008583;28;20597;-72
2023/04/03 02:15:14;;;;;;;8.27;4.43;;;;;;;7.35;81.42;94562.09;5030704;28;20680;-72
2023/04/03 02:17:39;;;;;;;10.27;4.70;;;;;;;7.03;82.73;94565.19;5007373;28;20692;-72
2023/04/03 02:20:06;;;;;;;10.17;4.70;;;;;;;7.15;82.08;94563.72;5019306;28;20306;-72
2023/04/03 02:22:31;;;;;;;8.07;4.20;;;;;;;7.32;80.82;94566.84;5028140;28;20715;-71
2023/04/03 02:24:56;;;;;;;10.77;4.67;;;;;;;7.25;81.73;94558.19;5030941;28;20217;-72
2023/04/03 02:27:22;;;;;;;8.70;4.40;;;;;;;7.05;82.15;94550.22;5035175;28;20726;-72
2023/04/03 02:29:47;;;;;;;10.43;4.43;;;;;;;7.04;82.55;94550.41;5019366;28;20225;-72
2023/04/03 02:32:13;;;;;;;8.80;4.50;;;;;;;6.87;83.18;94543.84;5012346;28;20924;-73
2023/04/03 02:34:38;;;;;;;7.80;4.30;;;;;;;6.87;83.93;94542.03;5030682;28;20243;-72
2023/04/03 02:37:04;;;;;;;8.53;4.30;;;;;;;6.75;83.88;94533.94;5014104;28;20256;-72
2023/04/03 02:39:29;;;;;;;7.97;4.30;;;;;;;6.76;84.61;94535.53;5013106;28;20244;-72
2023/04/03 02:41:55;;;;;;;11.67;4.60;;;;;;;6.91;83.06;94532.06;5024744;28;20225;-72
2023/04/03 02:44:20;;;;;;;9.70;4.73;;;;;;;7.00;82.40;94534.34;5012690;28;20285;-73
2023/04/03 02:46:46;;;;;;;10.10;4.63;;;;;;;7.18;81.81;94541.72;5018322;28;20326;-72
2023/04/03 02:49:11;;;;;;;10.73;4.67;;;;;;;7.03;82.82;94535.78;5034844;28;20237;-71
2023/04/03 02:51:37;;;;;;;11.97;5.20;;;;;;;7.10;82.94;94534.84;5017511;28;20226;-72
2023/04/03 02:54:02;;;;;;;13.10;5.70;;;;;;;7.04;83.64;94532.19;5009895;28;20242;-72
2023/04/03 02:56:28;;;;;;;13.50;5.50;;;;;;;6.85;84.16;94531.03;5014581;28;20238;-72
2023/04/03 02:58:53;;;;;;;12.43;5.30;;;;;;;6.99;83.55;94530.16;5019847;28;20232;-71
2023/04/03 03:01:19;;;;;;;13.10;5.83;;;;;;;6.90;83.66;94520.88;5018113;28;20232;-72
2023/04/03 03:03:45;;;;;;;11.60;5.30;;;;;;;6.75;84.43;94526.13;5031875;28;21161;-71
2023/04/03 03:06:12;;;;;;;13.40;5.57;;;;;;;6.60;85.00;94524.56;5032849;28;20295;-72
2023/04/03 03:08:37;;;;;;;12.20;5.90;;;;;;;6.60;85.01;94521.97;5016151;28;20275;-71
2023/04/03 03:11:03;;;;;;;13.03;6.30;;;;;;;6.57;85.32;94523.16;5008906;28;20237;-71
2023/04/03 03:13:29;;;;;;;15.83;6.40;;;;;;;6.66;84.49;94526.44;5002922;28;20229;-71
2023/04/03 03:15:54;;;;;;;13.87;7.30;;;;;;;6.34;85.25;94517.31;5003045;28;20226;-71
2023/04/03 03:18:20;;;;;;;14.90;6.37;;;;;;;6.24;87.20;94516.78;5012564;28;20234;-71
2023/04/03 03:20:45;;;;;;;20.77;7.93;;;;;;;6.47;86.19;94517.44;5003421;28;20874;-71
2023/04/03 03:23:11;;;;;;;21.13;8.30;;;;;;;6.68;85.33;94517.47;5006444;28;20230;-71
2023/04/03 03:25:40;;;;;;;19.43;8.20;;;;;;;6.60;84.98;94514.97;5012295;28;20911;-71
2023/04/03 03:28:05;;;;;;;16.90;7.80;;;;;;;6.55;85.53;94514.72;5009774;28;20726;-72
2023/04/03 03:30:31;;;;;;;19.27;8.30;;;;;;;6.59;85.31;94515.97;5017031;28;20225;-72
2023/04/03 03:32:56;;;;;;;21.50;8.07;;;;;;;6.60;86.07;94521.97;5013160;28;20863;-72
2023/04/03 03:35:21;;;;;;;20.87;8.43;;;;;;;6.67;85.22;94518.44;5016022;28;20240;-72
2023/04/03 03:37:47;;;;;;;19.80;8.50;;;;;;;6.52;85.48;94522.88;5016287;28;20225;-72
2023/04/03 03:40:12;;;;;;;19.17;8.30;;;;;;;6.52;86.07;94524.72;5000711;28;20229;-72
2023/04/03 03:42:38;;;;;;;20.83;8.37;;;;;;;6.52;85.99;94532.50;5015195;28;20257;-72
2023/04/03 03:45:04;;;;;;;19.00;8.00;;;;;;;6.33;86.91;94531.28;5012291;28;20641;-72
2023/04/03 03:47:30;;;;;;;19.90;8.30;;;;;;;6.40;86.78;94526.94;5008460;28;20353;-72
2023/04/03 03:49:55;;;;;;;20.90;8.70;;;;;;;6.25;88.32;94518.41;5001379;28;20367;-72
2023/04/03 03:52:21;;;;;;;18.60;8.37;;;;;;;6.34;86.66;94512.09;5029780;28;20299;-72
2023/04/03 03:54:46;;;;;;;21.50;8.00;;;;;;;6.17;88.67;94526.31;5014755;28;20226;-72
2023/04/03 03:57:12;;;;;;;18.17;8.03;;;;;;;6.37;86.41;94532.53;5010998;28;20234;-72
2023/04/03 03:59:37;;;;;;;21.23;8.03;;;;;;;6.45;86.31;94529.03;5002365;28;20230;-72
2023/04/03 04:02:03;;;;;;;16.47;8.00;;;;;;;6.64;84.61;94518.81;5021444;28;20650;-72
2023/04/03 04:04:28;;;;;;;21.67;8.20;;;;;;;6.56;84.92;94526.75;5027636;28;20226;-72
2023/04/03 04:06:54;;;;;;;20.17;9.60;;;;;;;6.50;86.08;94527.47;5030338;28;20225;-71
2023/04/03 04:09:20;;;;;;;21.20;9.10;;;;;;;6.67;84.09;94522.84;5016025;28;20628;-71
2023/04/03 04:11:45;;;;;;;28.77;10.00;;;;;;;6.66;84.93;94522.03;5031816;28;20229;-71
2023/04/03 04:14:12;;;;;;;23.33;9.90;;;;;;;6.66;84.15;94519.44;5032711;28;20265;-71
2023/04/03 04:16:37;;;;;;;21.00;9.97;;;;;;;6.64;84.46;94520.59;5015139;28;20294;-71
2023/04/03 04:19:03;;;;;;;22.57;10.00;;;;;;;6.60;85.09;94529.75;5014882;28;20241;-72
2023/04/03 04:21:28;;;;;;;21.60;9.77;;;;;;;6.71;84.66;94535.28;5000981;28;20237;-71
2023/04/03 04:23:54;;;;;;;19.57;9.10;;;;;;;6.72;84.76;94536.91;5021728;28;20218;-71
2023/04/03 04:26:20;;;;;;;24.97;9.67;;;;;;;6.86;84.85;94544.81;5013730;28;20261;-71
2023/04/03 04:28:45;;;;;;;25.60;9.53;;;;;;;6.91;84.29;94545.06;5011971;28;20288;-71
2023/04/03 04:31:11;;;;;;;25.50;9.50;;;;;;;6.77;84.95;94547.56;5012893;28;20242;-71
2023/04/03 04:33:36;;;;;;;23.60;9.70;;;;;;;6.51;85.90;94541.28;5028891;28;20230;-71
2023/04/03 04:36:02;;;;;;;24.70;9.90;;;;;;;6.34;86.67;94550.28;5022124;28;20248;-70
2023/04/03 04:38:27;;;;;;;19.73;9.47;;;;;;;6.49;86.21;94543.25;5014750;28;20237;-72
2023/04/03 04:40:53;;;;;;;22.20;9.43;;;;;;;6.67;85.60;94552.25;5011929;28;20234;-71
2023/04/03 04:43:18;;;;;;;21.43;9.27;;;;;;;6.78;85.40;94551.75;5019256;28;20894;-71
2023/04/03 04:45:44;;;;;;;20.97;9.27;;;;;;;6.79;84.79;94555.16;5020613;28;20230;-71
2023/04/03 04:48:09;;;;;;;21.67;9.50;;;;;;;6.81;84.87;94552.41;4999619;28;20260;-72
2023/04/03 04:50:35;;;;;;;21.37;8.90;;;;;;;6.87;85.11;94554.25;4997357;28;20230;-72
2023/04/03 04:53:00;;;;;;;24.17;9.57;;;;;;;6.89;85.79;94563.47;4998961;28;21031;-72
2023/04/03 04:55:26;;;;;;;23.00;9.40;;;;;;;6.91;84.42;94568.47;4989808;28;20665;-72
2023/04/03 04:57:51;;;;;;;22.67;9.63;;;;;;;7.01;83.92;94562.00;5006945;28;20230;-71
2023/04/03 05:00:18;;;;;;;21.43;9.80;;;;;;;6.92;85.17;94563.09;5013801;28;20235;-72
2023/04/03 05:02:43;;;;;;;20.90;9.87;;;;;;;6.79;85.39;94566.38;4991712;28;20226;-71
2023/04/03 05:05:08;;;;;;;24.63;10.70;;;;;;;6.81;85.41;94571.38;5014749;28;20727;-71
2023/04/03 05:07:35;;;;;;;27.27;10.40;;;;;;;6.95;85.19;94577.53;5017766;28;20240;-71
2023/04/03 05:10:02;;;;;;;30.33;11.40;;;;;;;7.09;84.05;94587.88;5021071;28;20226;-72
2023/04/03 05:12:27;;;;;;;35.80;11.73;;;;;;;6.84;84.28;94589.22;5034255;28;20328;-71
2023/04/03 05:14:53;;;;;;;30.40;11.20;;;;;;;7.03;83.38;94600.81;5017606;28;20731;-72
2023/04/03 05:17:18;;;;;;;33.67;11.97;;;;;;;6.81;84.36;94594.00;5030776;28;20237;-72
2023/04/03 05:19:44;;;;;;;34.17;12.30;;;;;;;6.78;84.12;94592.59;5018063;28;20229;-73
2023/04/03 05:22:10;;;;;;;29.37;12.07;;;;;;;7.15;83.76;94604.53;5001787;28;20260;-73
2023/04/03 05:24:35;;;;;;;29.87;11.93;;;;;;;7.19;83.97;94595.34;5035430;28;20703;-72
2023/04/03 05:27:01;;;;;;;35.10;12.40;;;;;;;7.38;82.96;94598.13;5017915;28;20277;-72
2023/04/03 05:29:26;;;;;;;28.90;12.27;;;;;;;7.32;82.74;94590.28;5003707;28;20221;-72
2023/04/03 05:31:52;;;;;;;29.17;11.97;;;;;;;7.32;83.93;94595.47;5035834;28;20245;-72
2023/04/03 05:34:17;;;;;;;31.33;12.23;;;;;;;7.60;83.20;94592.88;5017699;28;20315;-72
2023/04/03 05:36:43;;;;;;;30.20;11.87;;;;;;;7.66;82.64;94592.97;5030950;28;20244;-72
2023/04/03 05:39:08;;;;;;;35.73;12.70;;;;;;;7.75;82.10;94593.59;5016707;28;20236;-72
2023/04/03 05:41:34;;;;;;;35.23;12.83;;;;;;;7.75;81.47;94581.41;5000907;28;20918;-73
2023/04/03 05:44:00;;;;;;;38.43;13.93;;;;;;;7.84;81.11;94587.25;5014011;28;20704;-72
2023/04/03 05:46:25;;;;;;;41.00;15.57;;;;;;;7.97;80.33;94590.75;5029665;28;20761;-73
2023/04/03 05:48:51;;;;;;;44.93;17.23;;;;;;;7.83;79.82;94593.47;5016118;28;20682;-72
2023/04/03 05:51:23;;;;;;;35.27;14.80;;;;;;;7.72;80.63;94580.97;5026083;28;20292;-72
2023/04/03 05:53:48;;;;;;;41.50;15.40;;;;;;;7.76;81.51;94577.78;4999456;28;20770;-73
2023/04/03 05:56:14;;;;;;;30.07;12.30;;;;;;;7.65;80.82;94583.53;5021943;28;20226;-73
2023/04/03 05:58:39;;;;;;;33.30;11.83;;;;;;;7.74;80.76;94584.22;5031062;28;20768;-73
2023/04/03 06:01:05;;;;;;;30.93;11.00;;;;;;;7.67;81.74;94576.31;5023005;28;20618;-73
2023/04/03 06:03:31;;;;;;;21.90;10.10;;;;;;;7.77;80.55;94576.00;5007105;28;20653;-72
2023/04/03 06:05:56;;;;;;;22.83;9.47;;;;;;;8.12;79.35;94574.97;4997823;28;20232;-72
2023/04/03 06:08:23;;;;;;;52.53;16.80;;;;;;;8.10;78.22;94580.41;5010631;28;20226;-72
2023/04/03 06:10:50;;;;;;;57.43;17.60;;;;;;;7.87;80.30;94571.25;5034385;28;20225;-72
2023/04/03 06:13:15;;;;;;;41.67;14.60;;;;;;;7.96;80.51;94557.06;5013654;28;20329;-73
2023/04/03 06:15:46;;;;;;;38.63;13.40;;;;;;;8.06;78.46;94558.34;5012587;28;20313;-73
2023/04/03 06:18:12;;;;;;;29.73;12.00;;;;;;;8.08;79.35;94560.75;5034001;28;20234;-73
2023/04/03 06:20:38;;;;;;;24.93;11.67;;;;;;;7.80;79.64;94550.38;5006852;28;20641;-72
2023/04/03 06:23:03;;;;;;;32.87;11.73;;;;;;;7.78;79.85;94546.34;5033343;28;20257;-73
2023/04/03 06:25:28;;;;;;;27.70;12.40;;;;;;;8.15;79.37;94561.56;5031528;28;20265;-73
2023/04/03 06:27:55;;;;;;;33.40;13.40;;;;;;;7.94;79.70;94561.66;4996495;28;20230;-73
2023/04/03 06:30:21;;;;;;;32.13;14.70;;;;;;;8.06;78.26;94573.97;5003774;28;20683;-72
2023/04/03 06:32:46;;;;;;;32.73;14.43;;;;;;;8.37;78.38;94572.75;4999363;28;20241;-72
2023/04/03 06:35:11;;;;;;;31.83;15.63;;;;;;;8.71;76.83;94572.66;5024024;28;20245;-72
2023/04/03 06:37:37;;;;;;;41.43;17.53;;;;;;;8.56;75.60;94583.25;4997909;28;20230;-72
2023/04/03 06:40:03;;;;;;;45.23;17.80;;;;;;;8.22;77.08;94585.06;5011371;28;20258;-72
2023/04/03 06:42:29;;;;;;;38.27;16.97;;;;;;;8.26;78.41;94579.31;5044446;28;20234;-72
2023/04/03 06:44:55;;;;;;;40.50;17.17;;;;;;;8.40;77.65;94590.59;5014058;28;20241;-72
2023/04/03 06:47:20;;;;;;;35.77;15.50;;;;;;;8.57;77.31;94587.44;5023972;28;20233;-74
2023/04/03 06:49:45;;;;;;;31.57;15.17;;;;;;;8.85;76.13;94573.50;5013982;28;20998;-72
2023/04/03 06:52:14;;;;;;;30.33;14.50;;;;;;;8.91;76.77;94570.13;5024484;28;20229;-72
2023/04/03 06:54:40;;;;;;;30.50;14.37;;;;;;;9.05;75.29;94580.34;5030283;28;20264;-72
2023/04/03 06:57:06;;;;;;;32.30;14.80;;;;;;;9.02;75.05;94578.16;5030199;28;20327;-72
2023/04/03 06:59:31;;;;;;;32.77;14.93;;;;;;;9.33;74.59;94585.44;4998595;28;20226;-72
2023/04/03 07:01:58;;;;;;;33.83;15.00;;;;;;;9.55;74.50;94583.44;5022370;28;20233;-72
2023/04/03 07:04:24;;;;;;;39.43;15.40;;;;;;;9.59;74.52;94582.00;5031747;28;20329;-72
2023/04/03 07:06:50;;;;;;;32.03;14.10;;;;;;;9.62;73.37;94579.00;5000885;28;20237;-71
2023/04/03 07:09:16;;;;;;;31.57;13.73;;;;;;;9.70;73.24;94578.78;5018980;28;20232;-73
2023/04/03 07:11:41;;;;;;;34.30;12.80;;;;;;;9.74;73.00;94575.59;5020120;28;20233;-73
2023/04/03 07:14:07;;;;;;;31.47;12.70;;;;;;;9.69;72.29;94564.94;5015728;28;20238;-72
2023/04/03 07:16:33;;;;;;;29.00;12.60;;;;;;;9.97;72.64;94567.31;4997220;28;20720;-72
2023/04/03 07:19:00;;;;;;;27.90;11.40;;;;;;;10.02;70.70;94551.81;5016012;28;20230;-74
2023/04/03 07:21:25;;;;;;;25.20;11.93;;;;;;;10.00;71.14;94562.47;5016300;28;20244;-72
2023/04/03 07:23:51;;;;;;;28.07;11.63;;;;;;;9.93;71.90;94561.69;5016190;28;20226;-71
2023/04/03 07:26:16;;;;;;;25.80;12.10;;;;;;;10.18;71.53;94563.66;5016033;28;20624;-72
2023/04/03 07:28:43;;;;;;;26.90;11.03;;;;;;;10.38;69.63;94553.94;5012411;28;20245;-72
2023/04/03 07:31:13;;;;;;;24.50;11.93;;;;;;;10.51;69.63;94553.88;5023288;28;20244;-72
2023/04/03 07:33:38;;;;;;;28.60;12.23;;;;;;;10.50;69.18;94560.94;5007265;28;20225;-72
2023/04/03 07:36:07;;;;;;;28.87;13.53;;;;;;;10.55;68.56;94555.91;4995951;28;20265;-72
2023/04/03 07:38:32;;;;;;;33.10;15.00;;;;;;;10.45;69.04;94560.75;4987448;28;20239;-72
2023/04/03 07:40:58;;;;;;;42.40;16.10;;;;;;;10.34;68.90;94558.00;5031433;28;20229;-72
2023/04/03 07:43:24;;;;;;;36.17;15.77;;;;;;;10.35;70.16;94552.53;5028590;28;20745;-72
2023/04/03 07:45:50;;;;;;;39.23;17.77;;;;;;;10.41;69.29;94546.47;5005475;28;20229;-71
2023/04/03 07:48:17;;;;;;;35.80;17.07;;;;;;;10.50;69.39;94547.06;5031533;28;20571;-72
2023/04/03 07:50:43;;;;;;;39.63;16.60;;;;;;;10.54;69.65;94535.97;5006346;28;20310;-72
2023/04/03 07:53:08;;;;;;;39.07;16.03;;;;;;;10.75;68.52;94532.22;5019837;28;20699;-73
2023/04/03 07:55:37;;;;;;;35.23;16.27;;;;;;;10.86;68.62;94536.00;5017382;28;20237;-73
2023/04/03 07:58:03;;;;;;;33.83;16.03;;;;;;;10.85;68.12;94535.19;5036082;28;20237;-72
2023/04/03 08:00:29;;;;;;;41.60;15.77;;;;;;;10.74;68.39;94535.88;5002459;28;20320;-73
2023/04/03 08:02:54;;;;;;;42.37;17.27;;;;;;;10.75;68.49;94533.03;5031697;28;20248;-72
2023/04/03 08:05:20;;;;;;;44.77;16.87;;;;;;;10.35;69.68;94523.78;5022283;28;20234;-72
2023/04/03 08:07:46;;;;;;;31.93;16.03;;;;;;;10.05;71.89;94525.25;5013290;28;20234;-72
2023/04/03 08:10:12;;;;;;;40.47;15.50;;;;;;;10.26;72.05;94537.28;5004087;28;20400;-72
2023/04/03 08:12:37;;;;;;;37.10;15.50;;;;;;;10.46;71.64;94525.72;4998795;28;20621;-71
2023/04/03 08:15:03;;;;;;;32.03;14.93;;;;;;;10.72;71.39;94517.75;5033911;28;20602;-71
2023/04/03 08:17:28;;;;;;;37.90;16.10;;;;;;;10.73;69.73;94518.53;5033623;28;20316;-71
2023/04/03 08:19:54;;;;;;;36.97;16.10;;;;;;;10.86;68.98;94517.69;5034882;28;20663;-72
2023/04/03 08:22:20;;;;;;;34.80;16.50;;;;;;;10.53;70.22;94520.47;5031284;28;20249;-72
2023/04/03 08:24:45;;;;;;;36.17;15.77;;;;;;;10.74;70.26;94512.31;5016957;28;20256;-72
2023/04/03 08:27:11;;;;;;;40.73;16.73;;;;;;;11.00;68.28;94516.56;5011901;28;20241;-71
2023/04/03 08:29:37;;;;;;;40.07;16.27;;;;;;;11.26;67.35;94514.56;5006674;28;20238;-71
2023/04/03 08:32:04;;;;;;;37.80;17.70;;;;;;;11.23;66.88;94515.00;5009873;28;20282;-71
2023/04/03 08:34:29;;;;;;;40.53;17.10;;;;;;;11.24;67.36;94518.41;5027322;28;20318;-71
2023/04/03 08:36:55;;;;;;;38.37;17.73;;;;;;;11.39;68.12;94516.28;5032689;28;20244;-73
2023/04/03 08:39:20;;;;;;;36.57;17.20;;;;;;;11.14;67.18;94515.47;5032387;28;20257;-71
2023/04/03 08:41:49;;;;;;;41.10;17.43;;;;;;;11.16;67.22;94505.56;5035192;28;20244;-71
2023/04/03 08:44:35;;;;;;;38.60;17.00;;;;;;;11.25;67.54;94501.66;5036845;28;20225;-73
2023/04/03 08:47:04;;;;;;;33.37;16.70;;;;;;;11.50;66.97;94502.47;5029386;28;20238;-72
2023/04/03 08:49:37;;;;;;;34.00;15.73;;;;;;;11.47;66.83;94498.47;5013949;28;20475;-72
2023/04/03 08:52:14;;;;;;;33.37;16.03;;;;;;;11.69;65.07;94495.47;5017032;28;20233;-72
2023/04/03 08:55:01;;;;;;;35.20;15.60;;;;;;;11.48;65.76;94492.22;5025003;28;20241;-73
2023/04/03 08:57:34;;;;;;;32.33;15.07;;;;;;;11.87;64.19;94488.44;5005764;28;20237;-71
2023/04/03 09:00:11;;;;;;;32.17;14.23;;;;;;;11.84;64.24;94491.50;5011066;28;20244;-72
2023/04/03 09:02:50;;;;;;;32.30;14.43;;;;;;;12.15;64.05;94480.06;5024050;28;20396;-73
2023/04/03 09:05:18;;;;;;;32.80;15.13;;;;;;;12.01;63.22;94479.41;5019114;28;20741;-72
2023/04/03 09:07:48;;;;;;;30.30;14.27;;;;;;;12.29;64.32;94473.66;5016102;28;20226;-72
2023/04/03 09:10:14;;;;;;;30.70;14.57;;;;;;;12.29;62.45;94478.09;5010563;28;20363;-72
2023/04/03 09:12:42;;;;;;;30.70;14.30;;;;;;;12.08;62.99;94472.25;5010048;28;20704;-72
2023/04/03 09:15:25;;;;;;;29.67;14.10;;;;;;;12.39;62.97;94468.69;5018319;28;20294;-72
2023/04/03 09:18:03;;;;;;;24.47;12.63;;;;;;;12.46;61.62;94463.34;5025027;28;20237;-72
2023/04/03 09:20:46;;;;;;;28.73;13.90;;;;;;;12.35;62.01;94464.88;5031613;28;20233;-72
2023/04/03 09:23:26;;;;;;;27.10;14.50;;;;;;;12.27;62.66;94459.13;5034178;28;20233;-71
2023/04/03 09:25:54;;;;;;;30.23;14.17;;;;;;;12.40;62.00;94456.34;5027559;28;20230;-70
2023/04/03 09:28:19;;;;;;;25.97;13.47;;;;;;;12.38;61.97;94455.75;5014951;28;20233;-72
2023/04/03 09:30:46;;;;;;;24.03;12.63;;;;;;;12.59;61.82;94450.03;5031759;28;20229;-71
2023/04/03 09:33:11;;;;;;;31.30;12.47;;;;;;;12.82;61.73;94452.75;5035777;28;20233;-72
2023/04/03 09:35:37;;;;;;;23.30;11.50;;;;;;;12.95;61.84;94444.66;5018945;28;20253;-73
2023/04/03 09:38:11;;;;;;;28.53;12.77;;;;;;;12.93;60.14;94441.44;5003104;28;20245;-72
2023/04/03 09:40:51;;;;;;;30.63;14.87;;;;;;;12.87;61.22;94450.25;5031933;28;20311;-72
2023/04/03 09:43:24;;;;;;;30.60;15.83;;;;;;;13.06;61.82;94449.19;5021120;28;20615;-71
2023/04/03 09:45:50;;;;;;;36.30;16.40;;;;;;;12.88;62.40;94451.81;5022378;28;20832;-72
2023/04/03 09:48:27;;;;;;;33.97;16.37;;;;;;;12.78;62.07;94446.31;5016237;28;20234;-72
2023/04/03 09:50:58;;;;;;;29.77;13.90;;;;;;;12.93;61.45;94433.56;5007592;28;20233;-71
2023/04/03 09:53:31;;;;;;;24.27;12.27;;;;;;;12.79;60.66;94434.78;5008159;28;20234;-73
2023/04/03 09:55:56;;;;;;;25.90;13.10;;;;;;;12.83;61.14;94433.31;5032092;28;20260;-71
2023/04/03 09:58:27;;;;;;;29.13;14.53;;;;;;;12.67;61.80;94431.34;5007714;28;20238;-72
2023/04/03 10:01:00;;;;;;;36.23;13.97;;;;;;;12.65;62.21;94425.50;5009126;28;20237;-72
2023/04/03 10:03:31;;;;;;;33.80;15.57;;;;;;;12.51;62.62;94431.97;5032629;28;20625;-72
2023/04/03 10:05:57;;;;;;;33.43;14.43;;;;;;;12.65;62.86;94430.75;5016448;28;20295;-73
2023/04/03 10:08:30;;;;;;;28.80;12.97;;;;;;;12.62;62.48;94423.34;4994825;28;20246;-72
2023/04/03 10:11:16;;;;;;;28.37;11.20;;;;;;;12.63;61.42;94417.06;5005010;28;20674;-72
2023/04/03 10:14:16;;;;;;;28.93;12.07;;;;;;;12.50;63.59;94423.28;5032104;28;20224;-72
2023/04/03 10:16:43;;;;;;;30.93;12.63;;;;;;;12.52;64.09;94423.06;5037190;28;20272;-71
2023/04/03 10:19:34;;;;;;;27.17;10.80;;;;;;;12.09;64.12;94420.59;5015564;28;20269;-72
2023/04/03 10:22:10;;;;;;;28.40;10.80;;;;;;;12.42;64.75;94422.81;5031606;28;20245;-72
2023/04/03 10:24:43;;;;;;;24.37;11.13;;;;;;;12.57;64.31;94413.50;5019060;28;20258;-73
2023/04/03 10:27:50;;;;;;;25.20;11.00;;;;;;;12.56;64.11;94408.50;5033522;28;20237;-73
2023/04/03 10:30:54;;;;;;;21.87;10.30;;;;;;;12.62;64.21;94405.75;5033511;28;20686;-73
2023/04/03 10:33:32;;;;;;;25.70;10.57;;;;;;;12.59;64.40;94402.78;5022622;28;20320;-73
2023/04/03 10:36:02;;;;;;;25.00;10.50;;;;;;;12.66;64.33;94401.66;5015484;28;20236;-72
2023/04/03 10:38:58;;;;;;;25.83;9.83;;;;;;;12.79;63.46;94398.03;5026957;28;20256;-73
2023/04/03 10:41:38;;;;;;;26.77;9.00;;;;;;;12.85;63.11;94399.75;5031938;28;20238;-73
2023/04/03 10:44:11;;;;;;;21.27;9.10;;;;;;;12.81;63.11;94385.47;5018751;28;20240;-73
2023/04/03 10:47:16;;;;;;;23.63;8.30;;;;;;;12.67;62.43;94386.69;5028686;28;21296;-72
2023/04/03 10:49:54;;;;;;;20.77;8.03;;;;;;;12.62;63.87;94383.94;5032125;28;20866;-71
2023/04/03 10:52:25;;;;;;;18.83;7.80;;;;;;;12.66;62.55;94385.09;5032048;28;20225;-73
2023/04/03 10:55:00;;;;;;;21.93;8.00;;;;;;;12.79;63.49;94379.66;5001068;28;20227;-73
2023/04/03 10:57:25;;;;;;;19.70;8.47;;;;;;;12.82;63.47;94379.22;5030815;28;20240;-73
2023/04/03 11:00:03;;;;;;;16.60;7.67;;;;;;;12.79;63.56;94380.47;5008048;28;20225;-73
2023/04/03 11:02:42;;;;;;;24.83;9.00;;;;;;;12.77;63.49;94386.97;5016529;28;20240;-73
2023/04/03 11:05:16;;;;;;;22.27;7.40;;;;;;;12.75;64.17;94381.91;5016913;28;20233;-73
2023/04/03 11:07:50;;;;;;;17.63;6.27;;;;;;;12.71;63.78;94382.59;5030110;28;20233;-72
2023/04/03 11:10:23;;;;;;;12.53;5.23;;;;;;;12.65;63.99;94388.75;5001457;28;20264;-73
2023/04/03 11:12:53;;;;;;;11.47;5.13;;;;;;;12.63;65.72;94396.84;5014206;28;20248;-73
2023/04/03 11:15:29;;;;;;;9.37;5.00;;;;;;;12.59;67.92;94406.19;5014204;28;20246;-73
2023/04/03 11:17:58;;;;;;;9.60;5.00;;;;;;;12.49;70.41;94402.53;5015921;28;20225;-73
2023/04/03 11:20:32;;;;;;;18.90;9.17;;;;;;;12.49;70.20;94403.31;5012583;28;20322;-72
2023/04/03 11:23:25;;;;;;;19.93;9.53;;;;;;;12.44;72.54;94400.56;5034887;28;20224;-72
2023/04/03 11:25:53;;;;;;;11.70;4.20;;;;;;;12.27;71.56;94390.94;5031838;28;20290;-72
2023/04/03 11:28:18;;;;;;;10.03;4.27;;;;;;;12.31;73.29;94394.69;5014057;28;20735;-72
2023/04/03 11:30:53;;;;;;;10.60;4.00;;;;;;;12.22;76.40;94396.03;5016798;28;20261;-72